createdAt,value
2022-10-01T00:01:18.841Z,99549.81
2022-10-01T00:03:46.484Z,99545.63
2022-10-01T00:06:17.660Z,99537.31
2022-10-01T00:08:48.876Z,99526.75
2022-10-01T00:11:22.600Z,99523.19
2022-10-01T00:13:49.559Z,99515.75
2022-10-01T00:16:24.458Z,99507.44
2022-10-01T00:18:53.687Z,99508.31
2022-10-01T00:21:22.765Z,99494.94
2022-10-01T00:23:57.434Z,99489.88
2022-10-01T00:26:27.962Z,99479.44
2022-10-01T00:29:04.511Z,99477.00
2022-10-01T00:31:32.292Z,99469.78
2022-10-01T00:34:00.487Z,99464.84
2022-10-01T00:36:27.451Z,99454.66
2022-10-01T00:38:58.665Z,99459.00
2022-10-01T00:41:26.866Z,99453.44
2022-10-01T00:43:57.769Z,99450.97
2022-10-01T00:46:41.256Z,99444.63
2022-10-01T00:49:20.098Z,99436.44
2022-10-01T00:52:00.481Z,99441.06
2022-10-01T00:54:34.964Z,99444.88
2022-10-01T00:57:04.939Z,99445.53
2022-10-01T00:59:31.836Z,99426.41
2022-10-01T01:01:58.542Z,99430.09
2022-10-01T01:04:25.222Z,99413.81
2022-10-01T01:06:58.703Z,99415.06
2022-10-01T01:09:29.230Z,99410.22
2022-10-01T01:12:24.772Z,99386.38
2022-10-01T01:15:07.734Z,99389.72
2022-10-01T01:17:50.720Z,99378.69
2022-10-01T01:20:32.762Z,99377.66
2022-10-01T01:23:14.751Z,99366.28
2022-10-01T01:25:57.063Z,99364.50
2022-10-01T01:28:36.406Z,99354.47
2022-10-01T01:31:08.188Z,99359.72
2022-10-01T01:33:37.268Z,99339.94
2022-10-01T01:36:16.241Z,99322.91
2022-10-01T01:38:57.269Z,99340.38
2022-10-01T01:41:26.097Z,99337.38
2022-10-01T01:43:56.457Z,99323.50
2022-10-01T01:46:24.153Z,99309.50
2022-10-01T01:48:53.269Z,99314.16
2022-10-01T01:51:27.336Z,99311.47
2022-10-01T01:53:54.253Z,99314.03
2022-10-01T01:56:20.872Z,99307.97
2022-10-01T01:58:47.526Z,99307.63
2022-10-01T02:01:43.019Z,99310.44
2022-10-01T02:04:18.246Z,99298.88
2022-10-01T02:07:03.701Z,99301.34
2022-10-01T02:09:35.856Z,99306.31
2022-10-01T02:12:30.468Z,99299.59
2022-10-01T02:15:02.987Z,99290.25
2022-10-01T02:17:36.544Z,99287.47
2022-10-01T02:20:10.172Z,99297.25
2022-10-01T02:22:43.668Z,99287.94
2022-10-01T02:25:14.587Z,99275.66
2022-10-01T02:28:03.578Z,99269.00
2022-10-01T02:30:31.908Z,99282.44
2022-10-01T02:33:00.036Z,99273.44
2022-10-01T02:35:28.123Z,99278.53
2022-10-01T02:37:56.318Z,99271.56
2022-10-01T02:40:26.434Z,99253.66
2022-10-01T02:43:00.048Z,99262.13
2022-10-01T02:45:27.707Z,99259.03
2022-10-01T02:48:02.119Z,99255.78
2022-10-01T02:50:31.855Z,99251.31
2022-10-01T02:53:05.882Z,99260.53
2022-10-01T02:55:37.966Z,99259.59
2022-10-01T02:58:05.403Z,99265.84
2022-10-01T03:00:32.204Z,99278.53
2022-10-01T03:02:59.118Z,99266.44
2022-10-01T03:05:26.236Z,99286.78
2022-10-01T03:07:52.873Z,99312.00
2022-10-01T03:10:19.835Z,99326.25
2022-10-01T03:12:46.829Z,99355.53
2022-10-01T03:15:14.572Z,99359.34
2022-10-01T03:17:41.277Z,99366.66
2022-10-01T03:20:08.502Z,99393.16
2022-10-01T03:22:40.728Z,99418.38
2022-10-01T03:25:07.757Z,99419.72
2022-10-01T03:27:38.925Z,99435.94
2022-10-01T03:30:08.947Z,99438.41
2022-10-01T03:32:35.577Z,99431.41
2022-10-01T03:35:02.192Z,99427.97
2022-10-01T03:37:28.857Z,99436.50
2022-10-01T03:39:55.911Z,99444.13
2022-10-01T03:42:24.955Z,99449.13
2022-10-01T03:44:52.097Z,99444.59
2022-10-01T03:47:18.677Z,99454.03
2022-10-01T03:49:45.320Z,99453.00
2022-10-01T03:52:12.041Z,99446.47
2022-10-01T03:54:46.078Z,99440.28
2022-10-01T03:57:12.868Z,99440.50
2022-10-01T03:59:39.556Z,99438.97
2022-10-01T04:02:07.240Z,99434.91
2022-10-01T04:04:34.209Z,99441.75
2022-10-01T04:07:04.186Z,99452.75
2022-10-01T04:09:30.864Z,99457.31
2022-10-01T04:11:58.052Z,99466.47
2022-10-01T04:14:25.346Z,99467.34
2022-10-01T04:16:52.652Z,99475.31
2022-10-01T04:19:25.035Z,99473.28
2022-10-01T04:21:54.363Z,99477.81
2022-10-01T04:24:21.106Z,99478.03
2022-10-01T04:26:56.151Z,99489.16
2022-10-01T04:29:22.800Z,99495.97
2022-10-01T04:31:49.577Z,99495.75
2022-10-01T04:34:25.467Z,99504.81
2022-10-01T04:36:52.137Z,99503.00
2022-10-01T04:39:23.771Z,99509.97
2022-10-01T04:41:56.497Z,99511.81
2022-10-01T04:44:23.160Z,99522.50
2022-10-01T04:46:52.374Z,99517.56
2022-10-01T04:49:28.287Z,99531.09
2022-10-01T04:51:55.145Z,99522.47
2022-10-01T04:54:21.911Z,99521.06
2022-10-01T04:56:59.275Z,99524.97
2022-10-01T04:59:26.111Z,99539.72
2022-10-01T05:01:52.852Z,99537.47
2022-10-01T05:04:29.734Z,99542.81
2022-10-01T05:06:58.420Z,99559.09
2022-10-01T05:09:25.145Z,99556.16
2022-10-01T05:12:01.325Z,99549.81
2022-10-01T05:14:28.112Z,99560.50
2022-10-01T05:16:54.740Z,99563.59
2022-10-01T05:19:31.776Z,99559.72
2022-10-01T05:21:59.515Z,99556.88
2022-10-01T05:24:26.359Z,99566.34
2022-10-01T05:27:02.521Z,99563.28
2022-10-01T05:29:29.357Z,99558.53
2022-10-01T05:31:56.301Z,99576.44
2022-10-01T05:34:22.980Z,99573.97
2022-10-01T05:36:57.110Z,99582.81
2022-10-01T05:39:23.891Z,99585.69
2022-10-01T05:41:50.873Z,99585.31
2022-10-01T05:44:27.225Z,99583.44
2022-10-01T05:46:54.204Z,99578.50
2022-10-01T05:49:24.392Z,99580.16
2022-10-01T05:51:58.982Z,99576.44
2022-10-01T05:54:29.647Z,99566.97
2022-10-01T05:57:06.150Z,99571.50
2022-10-01T05:59:53.731Z,99574.78
2022-10-01T06:02:22.927Z,99567.56
2022-10-01T06:05:19.118Z,99574.56
2022-10-01T06:09:05.995Z,99574.31
2022-10-01T06:12:20.560Z,99588.28
2022-10-01T06:30:33.933Z,99590.56
2022-10-01T06:33:13.295Z,99591.56
2022-10-01T06:35:43.270Z,99575.13
2022-10-01T06:38:14.231Z,99598.53
2022-10-01T06:40:50.092Z,99605.09
2022-10-01T06:43:16.821Z,99613.53
2022-10-01T06:45:46.605Z,99607.69
2022-10-01T06:48:20.071Z,99627.63
2022-10-01T06:50:51.391Z,99608.88
2022-10-01T06:53:18.510Z,99615.88
2022-10-01T06:55:52.974Z,99630.72
2022-10-01T06:58:21.697Z,99641.34
2022-10-01T07:00:49.278Z,99646.25
2022-10-01T07:03:21.089Z,99633.28
2022-10-01T07:05:48.593Z,99646.22
2022-10-01T07:08:15.486Z,99643.75
2022-10-01T07:10:45.312Z,99650.50
2022-10-01T07:13:17.804Z,99654.59
2022-10-01T07:15:45.068Z,99662.56
2022-10-01T07:18:12.831Z,99678.00
2022-10-01T07:20:40.570Z,99678.13
2022-10-01T07:23:18.745Z,99680.38
2022-10-01T07:25:47.621Z,99691.09
2022-10-01T07:28:18.395Z,99698.94
2022-10-01T07:30:47.605Z,99692.06
2022-10-01T07:33:38.324Z,99704.41
2022-10-01T07:36:13.364Z,99705.72
2022-10-01T07:38:42.633Z,99707.22
2022-10-01T07:41:09.526Z,99717.38
2022-10-01T07:43:46.815Z,99720.41
2022-10-01T07:46:13.580Z,99725.53
2022-10-01T07:48:41.235Z,99725.72
2022-10-01T07:51:10.800Z,99734.19
2022-10-01T07:53:37.425Z,99742.03
2022-10-01T07:56:04.445Z,99730.09
2022-10-01T07:58:31.147Z,99734.19
2022-10-01T08:01:00.690Z,99746.69
2022-10-01T08:03:32.196Z,99747.19
2022-10-01T08:05:59.467Z,99752.31
2022-10-01T08:08:40.316Z,99760.94
2022-10-01T08:11:10.152Z,99753.06
2022-10-01T08:13:50.546Z,99768.97
2022-10-01T08:16:27.872Z,99769.72
2022-10-01T08:19:18.579Z,99774.50
2022-10-01T08:24:43.029Z,99803.78
2022-10-01T08:27:12.310Z,99810.69
2022-10-01T08:29:41.034Z,99807.94
2022-10-01T08:32:11.538Z,99811.59
2022-10-01T08:34:38.549Z,99825.38
2022-10-01T08:37:17.673Z,99811.81
2022-10-01T08:39:47.660Z,99821.00
2022-10-01T08:42:41.020Z,99832.09
2022-10-01T08:45:28.677Z,99838.88
2022-10-01T08:48:35.867Z,99838.09
2022-10-01T08:51:28.070Z,99839.97
2022-10-01T08:54:29.064Z,99843.34
2022-10-01T08:57:03.870Z,99852.66
2022-10-01T08:59:49.765Z,99843.53
2022-10-01T09:02:27.609Z,99843.16
2022-10-01T09:05:25.686Z,99859.66
2022-10-01T09:08:45.550Z,99857.19
2022-10-01T09:11:23.919Z,99861.97
2022-10-01T09:14:35.449Z,99864.31
2022-10-01T09:17:18.780Z,99862.03
2022-10-01T09:24:16.937Z,99881.94
2022-10-01T09:26:56.318Z,99892.78
2022-10-01T09:29:53.059Z,99869.13
2022-10-01T09:35:27.646Z,99878.50
2022-10-01T09:38:03.465Z,99873.88
2022-10-01T09:40:44.233Z,99874.03
2022-10-01T09:43:33.264Z,99873.00
2022-10-01T09:46:30.580Z,99867.88
2022-10-01T09:49:09.653Z,99858.38
2022-10-01T09:51:41.708Z,99854.06
2022-10-01T09:54:32.257Z,99847.44
2022-10-01T09:57:05.044Z,99842.00
2022-10-01T09:59:57.833Z,99848.13
2022-10-01T10:02:33.113Z,99847.38
2022-10-01T10:09:29.544Z,99844.97
2022-10-01T10:12:11.594Z,99823.34
2022-10-01T10:15:36.145Z,99834.81
2022-10-01T10:20:02.645Z,99838.03
2022-10-01T10:22:44.847Z,99831.88
2022-10-01T10:28:51.198Z,99838.41
2022-10-01T10:31:21.180Z,99828.84
2022-10-01T10:34:33.671Z,99820.19
2022-10-01T10:37:16.266Z,99817.41
2022-10-01T10:39:46.858Z,99801.88
2022-10-01T10:42:18.704Z,99794.72
2022-10-01T10:44:48.881Z,99800.94
2022-10-01T10:55:35.243Z,99783.78
2022-10-01T10:59:07.092Z,99782.88
2022-10-01T11:01:42.587Z,99761.59
2022-10-01T11:07:30.587Z,99719.50
2022-10-01T11:10:47.765Z,99705.06
2022-10-01T11:13:46.821Z,99689.03
2022-10-01T11:16:29.651Z,99674.00
2022-10-01T11:19:24.291Z,99665.22
2022-10-01T11:22:42.194Z,99660.44
2022-10-01T11:25:49.736Z,99646.09
2022-10-01T11:28:19.758Z,99625.97
2022-10-01T11:31:28.308Z,99622.59
2022-10-01T11:38:18.382Z,99582.09
2022-10-01T11:41:50.379Z,99574.84
2022-10-01T11:45:09.553Z,99545.56
2022-10-01T11:48:24.188Z,99514.66
2022-10-01T11:54:34.537Z,99481.44
2022-10-01T11:57:40.502Z,99481.53
2022-10-01T12:00:27.492Z,99467.44
2022-10-01T12:03:04.900Z,99451.94
2022-10-01T12:05:46.697Z,99442.19
2022-10-01T12:08:37.474Z,99447.50
2022-10-01T12:11:38.618Z,99435.41
2022-10-01T12:14:19.979Z,99416.28
2022-10-01T12:17:14.217Z,99409.38
2022-10-01T12:20:10.492Z,99406.56
2022-10-01T12:22:44.661Z,99413.94
2022-10-01T12:25:23.787Z,99424.56
2022-10-01T12:28:13.551Z,99425.69
2022-10-01T12:31:03.492Z,99419.03
2022-10-01T12:33:39.459Z,99406.25
2022-10-01T12:36:37.045Z,99412.31
2022-10-01T12:39:47.303Z,99420.16
2022-10-01T12:42:20.368Z,99426.06
2022-10-01T12:45:53.417Z,99468.69
2022-10-01T12:48:50.906Z,99497.59
2022-10-01T12:54:42.900Z,99518.41
2022-10-01T12:57:45.386Z,99527.69
2022-10-01T13:00:32.484Z,99498.59
2022-10-01T13:03:40.227Z,99467.59
2022-10-01T13:06:35.310Z,99451.75
2022-10-01T13:09:27.763Z,99432.56
2022-10-01T13:12:24.584Z,99415.44
2022-10-01T13:14:55.955Z,99393.56
2022-10-01T13:24:05.359Z,99353.78
2022-10-01T13:26:56.017Z,99367.00
2022-10-01T13:29:57.382Z,99352.06
2022-10-01T13:32:25.996Z,99382.72
2022-10-01T13:34:58.112Z,99420.16
2022-10-01T13:37:59.523Z,99428.44
2022-10-01T13:40:34.192Z,99458.13
2022-10-01T13:43:20.155Z,99482.94
2022-10-01T13:46:06.229Z,99532.38
2022-10-01T13:48:45.985Z,99579.84
2022-10-01T13:51:25.927Z,99636.94
2022-10-01T13:54:23.819Z,99672.28
2022-10-01T13:56:54.888Z,99679.53
2022-10-01T13:59:32.545Z,99753.22
2022-10-01T14:01:59.505Z,99792.56
2022-10-01T14:04:40.707Z,99851.44
2022-10-01T14:07:21.520Z,99919.16
2022-10-01T14:09:58.901Z,99951.09
2022-10-01T14:12:51.851Z,99996.53
2022-10-01T14:16:01.153Z,100049.78
2022-10-01T14:18:46.515Z,100080.44
2022-10-01T14:21:39.038Z,100095.94
2022-10-01T14:24:21.850Z,100122.50
2022-10-01T14:26:58.489Z,100135.91
2022-10-01T14:29:55.344Z,100164.56
2022-10-01T14:36:12.074Z,100222.88
2022-10-01T14:38:41.422Z,100232.56
2022-10-01T14:44:57.406Z,100281.81
2022-10-01T14:47:27.860Z,100276.06
2022-10-01T14:50:22.251Z,100297.28
2022-10-01T14:52:54.966Z,100289.25
2022-10-01T14:56:16.672Z,100314.59
2022-10-01T14:59:17.042Z,100337.88
2022-10-01T15:02:03.740Z,100335.03
2022-10-01T15:05:20.613Z,100340.78
2022-10-01T15:07:56.423Z,100371.34
2022-10-01T15:14:34.911Z,100381.69
2022-10-01T15:18:13.401Z,100406.44
2022-10-01T15:20:58.929Z,100419.03
2022-10-01T15:24:06.415Z,100440.28
2022-10-01T15:26:36.340Z,100453.09
2022-10-01T15:32:04.616Z,100471.06
2022-10-01T15:34:32.153Z,100477.47
2022-10-01T15:37:05.594Z,100470.84
2022-10-01T15:39:56.735Z,100483.44
2022-10-01T15:42:32.517Z,100487.16
2022-10-01T15:45:26.757Z,100494.19
2022-10-01T15:47:57.145Z,100500.97
2022-10-01T15:50:29.060Z,100526.59
2022-10-01T15:53:16.904Z,100537.13
2022-10-01T15:55:49.595Z,100543.13
2022-10-01T15:58:31.150Z,100549.13
2022-10-01T16:01:15.994Z,100550.34
2022-10-01T16:03:55.445Z,100549.94
2022-10-01T16:06:54.488Z,100555.28
2022-10-01T16:10:03.224Z,100564.41
2022-10-01T16:12:33.078Z,100583.59
2022-10-01T16:15:01.789Z,100591.25
2022-10-01T16:21:45.950Z,100604.66
2022-10-01T16:24:28.533Z,100639.97
2022-10-01T16:27:05.673Z,100640.19
2022-10-01T16:29:35.479Z,100631.69
2022-10-01T16:32:05.291Z,100623.44
2022-10-01T16:34:42.906Z,100622.59
2022-10-01T16:37:25.874Z,100634.56
2022-10-01T16:39:55.223Z,100613.91
2022-10-01T16:42:29.729Z,100635.19
2022-10-01T16:44:59.075Z,100625.69
2022-10-01T16:47:28.222Z,100610.22
2022-10-01T16:49:55.050Z,100616.00
2022-10-01T16:52:29.307Z,100631.09
2022-10-01T16:54:58.576Z,100643.06
2022-10-01T16:57:25.193Z,100633.38
2022-10-01T16:59:57.734Z,100618.69
2022-10-01T17:02:24.424Z,100595.16
2022-10-01T17:04:51.450Z,100585.03
2022-10-01T17:07:32.360Z,100573.25
2022-10-01T17:09:59.259Z,100556.94
2022-10-01T17:12:31.768Z,100541.47
2022-10-01T17:15:01.609Z,100532.75
2022-10-01T17:17:29.703Z,100531.72
2022-10-01T17:20:09.549Z,100523.50
2022-10-01T17:22:44.768Z,100524.09
2022-10-01T17:25:23.381Z,100518.31
2022-10-01T17:28:02.336Z,100498.91
2022-10-01T17:30:30.226Z,100510.28
2022-10-01T17:33:00.039Z,100506.97
2022-10-01T17:35:27.898Z,100502.63
2022-10-01T17:37:54.853Z,100498.53
2022-10-01T17:40:21.602Z,100490.47
2022-10-01T17:42:48.369Z,100478.47
2022-10-01T17:45:15.159Z,100486.53
2022-10-01T17:47:51.306Z,100483.84
2022-10-01T17:50:20.952Z,100480.13
2022-10-01T17:52:54.999Z,100480.13
2022-10-01T17:55:26.909Z,100475.78
2022-10-01T17:58:07.017Z,100482.41
2022-10-01T18:00:34.643Z,100480.97
2022-10-01T18:03:05.509Z,100470.84
2022-10-01T18:05:34.214Z,100474.56
2022-10-01T18:08:03.255Z,100475.63
2022-10-01T18:10:30.864Z,100472.31
2022-10-01T18:13:05.048Z,100475.16
2022-10-01T18:15:31.706Z,100463.59
2022-10-01T18:19:12.790Z,100455.97
2022-10-01T18:20:48.661Z,100458.66
2022-10-01T18:23:20.566Z,100456.81
2022-10-01T18:25:47.291Z,100444.22
2022-10-01T18:28:14.159Z,100427.94
2022-10-01T18:30:41.000Z,100418.00
2022-10-01T18:33:11.584Z,100413.06
2022-10-01T18:35:40.636Z,100410.38
2022-10-01T18:38:20.650Z,100409.56
2022-10-01T18:40:55.425Z,100401.91
2022-10-01T18:43:26.319Z,100390.56
2022-10-01T18:46:02.902Z,100382.09
2022-10-01T18:48:37.959Z,100372.81
2022-10-01T18:51:26.462Z,100377.09
2022-10-01T18:54:20.292Z,100379.78
2022-10-01T18:57:06.326Z,100378.38
2022-10-01T19:00:02.269Z,100379.56
2022-10-01T19:02:34.877Z,100387.38
2022-10-01T19:05:16.499Z,100391.09
2022-10-01T19:07:43.480Z,100394.78
2022-10-01T19:10:25.001Z,100401.97
2022-10-01T19:13:10.596Z,100412.88
2022-10-01T19:15:59.295Z,100415.81
2022-10-01T19:18:56.652Z,100434.78
2022-10-01T19:21:43.890Z,100446.56
2022-10-01T19:24:35.462Z,100454.44
2022-10-01T19:27:41.830Z,100456.66
2022-10-01T19:30:16.855Z,100458.50
2022-10-01T19:32:56.489Z,100464.47
2022-10-01T19:35:28.145Z,100465.06
2022-10-01T19:38:04.267Z,100471.81
2022-10-01T19:40:39.601Z,100478.66
2022-10-01T19:43:38.289Z,100483.59
2022-10-01T19:46:26.580Z,100496.78
2022-10-01T19:48:53.167Z,100499.47
2022-10-01T19:51:25.012Z,100512.47
2022-10-01T19:54:00.941Z,100516.63
2022-10-01T19:56:33.204Z,100525.69
2022-10-01T19:59:20.997Z,100543.44
2022-10-01T20:02:03.770Z,100550.06
2022-10-01T20:04:38.214Z,100558.13
2022-10-01T20:07:14.397Z,100555.44
2022-10-01T20:09:46.126Z,100561.19
2022-10-01T20:12:18.451Z,100568.22
2022-10-01T20:15:10.700Z,100573.97
2022-10-01T20:17:42.999Z,100584.66
2022-10-01T20:20:14.646Z,100584.88
2022-10-01T20:22:57.784Z,100593.13
2022-10-01T20:25:32.570Z,100595.41
2022-10-01T20:28:19.698Z,100616.28
2022-10-01T20:31:11.341Z,100617.16
2022-10-01T20:33:53.377Z,100624.75
2022-10-01T20:36:37.135Z,100630.31
2022-10-01T20:39:20.135Z,100635.06
2022-10-01T20:41:53.411Z,100637.59
2022-10-01T20:44:34.834Z,100643.59
2022-10-01T20:47:17.734Z,100641.94
2022-10-01T20:49:50.767Z,100640.41
2022-10-01T20:52:17.333Z,100648.69
2022-10-01T20:54:46.591Z,100648.88
2022-10-01T20:57:30.592Z,100651.00
2022-10-01T21:00:05.610Z,100650.09
2022-10-01T21:03:18.954Z,100649.25
2022-10-01T21:06:40.909Z,100655.03
2022-10-01T21:09:29.253Z,100663.31
2022-10-01T21:12:07.323Z,100653.13
2022-10-01T21:14:49.424Z,100654.31
2022-10-01T21:17:16.264Z,100656.16
2022-10-01T21:19:48.658Z,100665.28
2022-10-01T21:22:21.088Z,100665.28
2022-10-01T21:25:19.792Z,100666.22
2022-10-01T21:28:09.595Z,100670.63
2022-10-01T21:30:47.623Z,100665.03
2022-10-01T21:33:29.668Z,100674.91
2022-10-01T21:36:19.372Z,100675.13
2022-10-01T21:38:50.267Z,100674.47
2022-10-01T21:41:19.834Z,100670.53
2022-10-01T21:44:05.855Z,100673.22
2022-10-01T21:47:07.954Z,100677.88
2022-10-01T21:50:03.247Z,100667.56
2022-10-01T21:52:47.143Z,100682.56
2022-10-01T21:55:50.565Z,100684.84
2022-10-01T21:58:20.429Z,100677.00
2022-10-01T22:01:08.451Z,100677.22
2022-10-01T22:03:45.011Z,100681.25
2022-10-01T22:06:36.325Z,100691.00
2022-10-01T22:09:10.167Z,100693.53
2022-10-01T22:11:56.381Z,100696.97
2022-10-01T22:14:26.007Z,100703.16
2022-10-01T22:17:15.757Z,100708.34
2022-10-01T22:19:51.406Z,100717.78
2022-10-01T22:22:34.067Z,100723.78
2022-10-01T22:25:01.651Z,100728.66
2022-10-01T22:28:01.511Z,100724.59
2022-10-01T22:30:43.312Z,100724.00
2022-10-01T22:33:26.652Z,100721.56
2022-10-01T22:36:15.797Z,100729.81
2022-10-01T22:38:53.880Z,100738.91
2022-10-01T22:41:35.266Z,100726.88
2022-10-01T22:44:25.675Z,100738.75
2022-10-01T22:47:10.088Z,100742.13
2022-10-01T22:49:54.830Z,100744.16
2022-10-01T22:52:35.848Z,100745.94
2022-10-01T22:55:27.435Z,100740.97
2022-10-01T22:58:13.744Z,100739.25
2022-10-01T23:01:06.888Z,100742.09
2022-10-01T23:03:50.425Z,100742.28
2022-10-01T23:06:42.281Z,100738.69
2022-10-01T23:09:19.012Z,100743.03
2022-10-01T23:12:25.814Z,100747.31
2022-10-01T23:15:13.866Z,100758.53
2022-10-01T23:18:03.739Z,100773.03
2022-10-01T23:20:46.987Z,100767.28
2022-10-01T23:23:34.506Z,100776.34
2022-10-01T23:26:56.560Z,100778.00
2022-10-01T23:29:55.008Z,100773.03
2022-10-01T23:32:46.897Z,100770.44
2022-10-01T23:35:19.398Z,100761.50
2022-10-01T23:37:58.095Z,100766.47
2022-10-01T23:40:32.072Z,100764.56
2022-10-01T23:43:03.562Z,100770.66
2022-10-01T23:45:34.598Z,100770.66
2022-10-01T23:48:37.152Z,100779.03
2022-10-01T23:51:07.939Z,100791.72
2022-10-01T23:53:40.616Z,100786.63
2022-10-01T23:56:37.867Z,100787.47
2022-10-01T23:59:12.722Z,100783.00
